Time;durP1;ratioP1;P1;durP2;ratioP2;P2;SDS_P1;SDS_P2;PMS_P1;PMS_P2;Temp;Humidity;BMP_temperature;BMP_pressure;BME280_temperature;BME280_humidity;BME280_pressure;Samples;Min_cycle;Max_cycle;Signal;HPM_P1;HPM_P2
2023/07/14 00:00:32;;;;;;;7.50;4.65;;;;;;;17.39;83.38;101030.75;4937469;29;20048;-82
2023/07/14 00:03:00;;;;;;;9.35;4.55;;;;;;;17.39;83.40;101025.44;4933505;29;20079;-82
2023/07/14 00:05:29;;;;;;;9.35;4.78;;;;;;;17.55;83.09;101019.03;4938701;29;20131;-82
2023/07/14 00:07:57;;;;;;;7.75;5.03;;;;;;;17.56;82.94;101021.50;4938801;29;20063;-80
2023/07/14 00:10:26;;;;;;;8.40;4.53;;;;;;;17.76;82.28;101021.69;4938131;29;20058;-82
2023/07/14 00:12:53;;;;;;;10.55;4.82;;;;;;;17.79;82.17;101021.28;4937974;29;20433;-81
2023/07/14 00:15:21;;;;;;;9.98;5.20;;;;;;;17.82;81.91;101004.22;4936860;29;20079;-81
2023/07/14 00:17:51;;;;;;;9.98;4.80;;;;;;;17.82;81.53;101006.84;4938155;29;20058;-81
2023/07/14 00:20:24;;;;;;;9.10;4.60;;;;;;;17.85;81.56;101007.28;4937599;29;20079;-80
2023/07/14 00:22:52;;;;;;;8.55;4.63;;;;;;;17.82;81.65;101009.50;4931597;29;20060;-81
2023/07/14 00:25:23;;;;;;;6.90;4.55;;;;;;;17.75;81.85;100998.88;4938351;29;20064;-81
2023/07/14 00:27:50;;;;;;;8.30;4.75;;;;;;;17.65;82.38;101008.13;4937746;29;20056;-81
2023/07/14 00:30:23;;;;;;;7.63;4.97;;;;;;;17.57;82.63;101017.84;4937225;29;20580;-79
2023/07/14 00:32:51;;;;;;;10.27;5.25;;;;;;;17.48;83.14;101015.56;4938629;29;20094;-80
2023/07/14 00:35:24;;;;;;;10.18;4.85;;;;;;;17.37;83.63;101016.88;4938309;29;20079;-80
2023/07/14 00:37:52;;;;;;;10.43;5.20;;;;;;;17.32;84.19;101023.75;4937975;29;20131;-79
2023/07/14 00:40:21;;;;;;;7.32;4.70;;;;;;;17.43;84.21;101016.13;4937186;29;20063;-80
2023/07/14 00:42:53;;;;;;;8.73;5.00;;;;;;;17.45;84.12;101016.75;4936868;29;20139;-78
2023/07/14 00:45:23;;;;;;;8.70;4.93;;;;;;;17.42;84.08;101024.25;4936519;29;20094;-80
2023/07/14 00:47:54;;;;;;;8.32;4.43;;;;;;;17.45;83.87;101018.56;4938806;29;20744;-78
2023/07/14 00:50:29;;;;;;;7.47;4.50;;;;;;;17.42;83.68;101013.66;4941344;29;20087;-79
2023/07/14 00:52:58;;;;;;;6.32;4.47;;;;;;;17.44;83.43;101017.75;4941747;29;20056;-80
2023/07/14 00:55:37;;;;;;;6.60;4.43;;;;;;;17.45;83.16;101016.75;4943383;29;20057;-79
2023/07/14 00:58:10;;;;;;;11.13;4.60;;;;;;;17.49;83.32;101025.91;4942087;29;20047;-78
2023/07/14 01:00:39;;;;;;;6.72;4.22;;;;;;;17.51;82.98;101018.59;4943615;29;20136;-78
2023/07/14 01:03:15;;;;;;;8.13;4.15;;;;;;;17.55;82.74;101019.84;4943361;29;20087;-80
2023/07/14 01:05:43;;;;;;;8.23;4.22;;;;;;;17.50;82.06;101010.84;4944123;29;20082;-79
2023/07/14 01:08:09;;;;;;;6.57;4.50;;;;;;;17.50;81.90;101001.09;4944549;29;20048;-78
2023/07/14 01:10:44;;;;;;;7.32;4.20;;;;;;;17.48;81.71;101002.31;4944615;29;20130;-80
2023/07/14 01:13:10;;;;;;;10.90;4.32;;;;;;;17.45;81.78;101014.09;4945591;29;20083;-78
2023/07/14 01:15:41;;;;;;;6.22;4.10;;;;;;;17.41;81.86;101004.91;4943957;29;20153;-80
2023/07/14 01:18:09;;;;;;;6.40;4.28;;;;;;;17.42;82.24;101006.56;4945480;29;20071;-79
2023/07/14 01:20:38;;;;;;;5.65;3.97;;;;;;;17.44;82.08;101011.66;4944138;29;20051;-78
2023/07/14 01:23:21;;;;;;;8.30;4.10;;;;;;;17.54;81.97;101007.63;4943251;29;20055;-80
2023/07/14 01:26:01;;;;;;;9.20;4.70;;;;;;;17.53;81.94;101011.28;4937386;29;20485;-79
2023/07/14 01:28:29;;;;;;;7.40;4.10;;;;;;;17.64;81.68;101014.44;4942655;29;20432;-77
2023/07/14 01:30:56;;;;;;;6.13;4.20;;;;;;;17.69;81.57;101009.41;4939948;29;20127;-78
2023/07/14 01:33:22;;;;;;;8.15;4.30;;;;;;;17.66;81.26;101009.78;4941030;29;20241;-80
2023/07/14 01:35:52;;;;;;;10.90;4.20;;;;;;;17.59;81.61;101009.72;4940838;29;20130;-79
2023/07/14 01:38:20;;;;;;;8.50;4.32;;;;;;;17.56;81.79;101018.84;4940478;29;20171;-80
2023/07/14 01:40:47;;;;;;;7.55;4.53;;;;;;;17.52;82.20;101014.94;4941687;29;20058;-80
2023/07/14 01:43:14;;;;;;;6.35;4.18;;;;;;;17.56;82.22;101008.25;4944420;29;20048;-78
2023/07/14 01:45:48;;;;;;;11.80;4.30;;;;;;;17.52;82.28;101007.00;4941481;29;20054;-78
2023/07/14 01:48:17;;;;;;;8.75;4.22;;;;;;;17.54;82.42;101012.94;4943758;29;20099;-77
2023/07/14 01:50:49;;;;;;;10.10;4.45;;;;;;;17.52;82.57;101007.00;4938868;29;20198;-79
2023/07/14 01:53:26;;;;;;;8.25;4.45;;;;;;;17.41;82.95;101018.13;4929251;29;20475;-79
2023/07/14 01:55:54;;;;;;;6.18;4.10;;;;;;;17.37;83.37;101024.81;4938722;29;20476;-77
2023/07/14 01:58:24;;;;;;;8.60;4.18;;;;;;;17.27;83.87;101016.38;4953286;29;20070;-81
2023/07/14 02:00:54;;;;;;;9.30;4.43;;;;;;;17.29;83.91;101014.38;4955624;29;20075;-83
2023/07/14 02:03:30;;;;;;;5.50;4.10;;;;;;;17.32;83.46;101013.16;4946244;29;20190;-81
2023/07/14 02:05:57;;;;;;;7.03;4.35;;;;;;;17.13;83.94;101017.25;4942733;29;20131;-80
2023/07/14 02:08:24;;;;;;;7.80;4.20;;;;;;;17.21;84.31;101011.84;4943695;29;20115;-78
2023/07/14 02:10:51;;;;;;;7.13;4.55;;;;;;;17.07;84.87;101020.66;4944388;29;20056;-80
2023/07/14 02:13:18;;;;;;;9.98;4.63;;;;;;;17.05;85.02;101012.09;4941463;29;20051;-78
2023/07/14 02:15:46;;;;;;;6.25;4.40;;;;;;;16.98;85.51;101021.81;4945068;29;20043;-80
2023/07/14 02:18:19;;;;;;;7.57;4.63;;;;;;;16.89;85.72;101014.00;4943738;29;20063;-81
2023/07/14 02:20:47;;;;;;;12.50;4.63;;;;;;;16.86;85.80;101006.44;4933328;29;20119;-77
2023/07/14 02:23:19;;;;;;;9.35;4.85;;;;;;;16.86;85.86;101009.09;4941931;29;20048;-79
2023/07/14 02:25:53;;;;;;;9.63;4.70;;;;;;;16.86;85.60;101010.91;4935363;29;20055;-81
2023/07/14 02:28:19;;;;;;;9.18;4.60;;;;;;;16.78;85.67;101011.03;4940751;28;20065;-77
2023/07/14 02:30:51;;;;;;;7.45;4.75;;;;;;;16.79;85.77;101012.66;4935932;29;20136;-80
2023/07/14 02:33:25;;;;;;;9.20;4.60;;;;;;;16.71;85.74;101010.13;4937117;29;20203;-79
2023/07/14 02:36:00;;;;;;;13.20;4.43;;;;;;;16.69;85.69;100997.09;4939640;29;20135;-79
2023/07/14 02:38:27;;;;;;;8.15;4.80;;;;;;;16.62;85.69;101009.38;4943406;29;20126;-80
2023/07/14 02:41:00;;;;;;;8.68;4.80;;;;;;;16.54;85.97;101014.81;4943666;29;20083;-81
2023/07/14 02:43:30;;;;;;;7.15;4.68;;;;;;;16.49;86.08;101007.44;4941866;29;20107;-80
2023/07/14 02:45:58;;;;;;;5.82;4.25;;;;;;;16.52;86.21;101003.59;4942840;29;20054;-80
2023/07/14 02:48:31;;;;;;;11.43;4.70;;;;;;;16.42;86.49;101005.72;4941552;29;20087;-79
2023/07/14 02:50:58;;;;;;;9.80;4.82;;;;;;;16.41;86.75;101014.66;4940160;29;20060;-79
2023/07/14 02:53:28;;;;;;;8.68;4.90;;;;;;;16.33;86.98;101009.47;4941513;29;20152;-78
2023/07/14 02:55:54;;;;;;;8.68;4.72;;;;;;;16.28;87.39;101007.38;4946559;29;20059;-78
2023/07/14 02:58:24;;;;;;;9.38;5.40;;;;;;;16.23;87.78;101015.03;4947111;29;20055;-81
2023/07/14 04:00:37;;;;;;;;;;;;;;;;;;;;;
2023/07/14 04:06:53;;;;;;;10.88;5.50;;;;;;;15.18;91.84;100970.22;4943111;28;20086;-77
2023/07/14 04:36:13;;;;;;;7.25;4.90;;;;;;;15.53;90.50;100989.03;4848059;28;20060;-79
2023/07/14 05:21:44;;;;;;;8.57;4.90;;;;;;;17.95;82.02;100946.03;4719831;30;20659;-81
2023/07/14 05:24:11;;;;;;;9.02;4.68;;;;;;;17.99;81.96;100957.03;4760521;29;20063;-80
2023/07/14 05:26:38;;;;;;;8.48;4.78;;;;;;;17.97;82.19;100954.56;4890979;28;20059;-79
2023/07/14 05:29:06;;;;;;;9.95;4.88;;;;;;;18.28;81.37;100956.75;4959220;28;20134;-79
2023/07/14 05:31:33;;;;;;;6.75;4.70;;;;;;;18.66;79.61;100951.78;4958554;28;20055;-79
2023/07/14 05:33:59;;;;;;;7.20;4.80;;;;;;;19.66;77.45;100952.63;4959857;28;20451;-80
2023/07/14 05:36:26;;;;;;;10.88;4.85;;;;;;;20.10;74.16;100941.25;4970546;28;20093;-80
2023/07/14 05:38:54;;;;;;;7.18;4.40;;;;;;;20.20;72.98;100937.13;4961028;28;20047;-80
2023/07/14 05:41:21;;;;;;;8.73;4.47;;;;;;;20.82;72.14;100938.19;4961748;28;20138;-80
2023/07/14 05:43:48;;;;;;;8.13;4.70;;;;;;;20.20;72.35;100946.94;4972429;28;20082;-80
2023/07/14 05:46:14;;;;;;;11.80;4.50;;;;;;;21.87;68.99;100943.59;4962697;28;20515;-80
2023/07/14 05:48:41;;;;;;;7.65;4.57;;;;;;;22.54;66.97;100947.06;4971120;28;20131;-80
2023/07/14 05:51:07;;;;;;;10.23;4.57;;;;;;;23.33;63.96;100953.81;4963344;28;20115;-79
2023/07/14 05:53:34;;;;;;;5.93;4.43;;;;;;;21.40;67.79;100953.09;4964823;28;20051;-79
2023/07/14 05:56:02;;;;;;;8.43;4.65;;;;;;;20.27;71.23;100945.06;4963231;28;20131;-79
2023/07/14 05:58:29;;;;;;;7.85;4.50;;;;;;;20.55;70.78;100960.69;4963294;28;20051;-80
2023/07/14 06:00:55;;;;;;;7.55;4.57;;;;;;;20.52;70.92;100942.50;4961777;28;20475;-80
2023/07/14 06:03:22;;;;;;;10.18;4.80;;;;;;;21.55;69.58;100958.09;4966544;28;20097;-80
2023/07/14 06:05:56;;;;;;;7.50;4.28;;;;;;;23.21;64.64;100954.84;4976544;28;20534;-82
2023/07/14 06:08:32;;;;;;;7.82;4.53;;;;;;;24.29;61.19;100951.59;4978723;28;20133;-79
2023/07/14 06:11:12;;;;;;;12.70;4.53;;;;;;;25.12;59.37;100957.09;4974332;28;20054;-80
2023/07/14 06:16:24;;;;;;;6.82;4.35;;;;;;;25.36;57.76;100952.38;4958615;28;20110;-80
2023/07/14 06:19:28;;;;;;;5.28;4.00;;;;;;;25.34;57.59;100927.69;4973598;28;20138;-80
2023/07/14 06:22:33;;;;;;;6.43;4.03;;;;;;;25.86;56.10;100897.84;4947886;29;20128;-81
2023/07/14 06:25:30;;;;;;;7.25;4.00;;;;;;;24.19;59.74;100913.94;4954301;28;20147;-80
2023/07/14 06:28:50;;;;;;;7.72;4.10;;;;;;;23.58;61.01;100904.72;4968608;28;20051;-80
2023/07/14 06:31:55;;;;;;;8.95;4.47;;;;;;;25.02;59.30;100924.00;4964202;28;20419;-80
2023/07/14 06:34:36;;;;;;;7.40;4.43;;;;;;;23.94;60.18;100900.91;4965640;28;20051;-80
2023/07/14 06:37:32;;;;;;;7.63;4.40;;;;;;;23.10;62.60;100903.13;4964945;28;20123;-81
2023/07/14 06:40:11;;;;;;;7.78;4.53;;;;;;;22.59;62.84;100893.84;4962522;28;20523;-81
2023/07/14 06:46:34;;;;;;;9.63;4.72;;;;;;;22.60;62.80;100884.81;4977757;28;20107;-82
2023/07/14 06:52:33;;;;;;;7.88;5.00;;;;;;;23.45;62.11;100900.41;4946935;28;20060;-80
2023/07/14 06:55:43;;;;;;;8.18;4.47;;;;;;;23.62;61.14;100900.53;4963727;28;20507;-80
2023/07/14 07:07:32;;;;;;;6.20;4.15;;;;;;;24.19;59.44;100880.00;4967119;28;20054;-80
2023/07/14 07:09:59;;;;;;;6.95;4.07;;;;;;;25.00;57.59;100864.53;4961362;28;20106;-80
2023/07/14 07:12:26;;;;;;;9.98;4.57;;;;;;;25.31;58.15;100871.94;4967045;28;20233;-80
2023/07/14 07:14:52;;;;;;;9.57;4.28;;;;;;;25.49;57.57;100875.38;4958020;28;20047;-80
2023/07/14 07:17:19;;;;;;;8.23;4.30;;;;;;;26.58;54.58;100870.66;4962687;28;20047;-80
2023/07/14 07:19:47;;;;;;;8.85;4.43;;;;;;;27.51;53.64;100880.94;4967588;28;20086;-80
2023/07/14 07:22:13;;;;;;;9.45;4.25;;;;;;;27.58;52.74;100876.13;4964682;28;20089;-80
2023/07/14 07:24:40;;;;;;;9.25;3.97;;;;;;;26.86;53.00;100874.94;4963074;28;20090;-81
2023/07/14 07:27:07;;;;;;;7.63;3.70;;;;;;;27.12;53.33;100875.91;4969926;28;20138;-83
2023/07/14 07:29:34;;;;;;;8.82;3.80;;;;;;;25.84;54.91;100859.75;4968258;28;20050;-84
2023/07/14 07:32:03;;;;;;;8.25;4.00;;;;;;;26.10;54.74;100864.31;4961604;28;20127;-81
2023/07/14 07:34:29;;;;;;;7.90;4.30;;;;;;;25.97;55.55;100861.25;4960838;28;20118;-82
2023/07/14 07:36:57;;;;;;;8.10;4.40;;;;;;;26.92;54.24;100856.97;4962929;28;20078;-81
2023/07/14 07:39:24;;;;;;;9.30;4.47;;;;;;;26.96;53.71;100861.56;4970682;28;20079;-82
2023/07/14 07:41:51;;;;;;;10.63;4.72;;;;;;;27.26;52.68;100850.22;4962610;28;20058;-81
2023/07/14 07:44:21;;;;;;;9.38;4.25;;;;;;;27.50;52.16;100853.25;4963318;28;20138;-81
2023/07/14 07:46:47;;;;;;;8.07;4.65;;;;;;;27.91;52.47;100845.34;4973610;28;20102;-82
2023/07/14 07:49:14;;;;;;;11.18;5.15;;;;;;;28.02;52.02;100846.97;4975026;28;20102;-81
2023/07/14 07:51:40;;;;;;;7.85;4.70;;;;;;;28.33;50.14;100837.09;4971549;28;20093;-81
2023/07/14 07:54:09;;;;;;;10.15;5.00;;;;;;;28.97;50.22;100841.91;4968267;28;20476;-82
2023/07/14 07:56:35;;;;;;;9.60;4.82;;;;;;;29.13;49.99;100839.97;4960330;28;20105;-81
2023/07/14 07:59:02;;;;;;;8.77;5.32;;;;;;;28.02;50.77;100837.03;4966042;28;20192;-81
2023/07/14 08:01:29;;;;;;;10.93;4.90;;;;;;;28.50;49.89;100829.56;4961382;28;20055;-79
2023/07/14 08:03:55;;;;;;;9.63;5.18;;;;;;;27.55;51.47;100814.84;4963729;28;20051;-81
2023/07/14 08:06:25;;;;;;;15.02;5.25;;;;;;;27.82;52.02;100818.19;4975233;28;20441;-83
2023/07/14 08:08:55;;;;;;;7.22;4.00;;;;;;;26.29;53.64;100795.03;4961175;28;20043;-84
2023/07/14 08:11:26;;;;;;;10.90;3.92;;;;;;;25.17;55.34;100800.22;4966414;28;20054;-82
2023/07/14 08:13:54;;;;;;;6.90;4.18;;;;;;;25.78;55.81;100788.38;4963016;28;20368;-82
2023/07/14 08:16:21;;;;;;;10.35;4.00;;;;;;;27.44;52.64;100806.72;4967937;28;20118;-82
2023/07/14 08:18:48;;;;;;;10.40;4.22;;;;;;;28.41;50.72;100798.88;4969570;28;20102;-80
2023/07/14 08:21:42;;;;;;;;;;;;;;;;;;;;;
2023/07/14 08:24:12;;;;;;;15.40;4.82;;;;;;;28.15;50.44;100767.63;4967350;28;20043;-80
2023/07/14 08:26:40;;;;;;;8.82;4.32;;;;;;;26.85;52.84;100797.31;4962546;28;20496;-82
2023/07/14 08:29:09;;;;;;;8.13;4.07;;;;;;;25.53;54.46;100791.56;4961872;28;20110;-82
2023/07/14 08:31:36;;;;;;;6.95;4.40;;;;;;;25.43;54.95;100770.03;4978425;28;20119;-81
2023/07/14 08:34:41;;;;;;;10.00;4.10;;;;;;;25.99;53.79;100773.31;4969045;28;20113;-83
2023/07/14 08:37:14;;;;;;;7.70;4.03;;;;;;;25.53;54.56;100785.38;4897015;29;20454;-84
2023/07/14 08:39:43;;;;;;;7.28;4.25;;;;;;;26.83;53.42;100772.59;4955356;28;20114;-81
2023/07/14 08:42:32;;;;;;;5.97;3.90;;;;;;;28.89;50.28;100777.81;4962981;28;20051;-82
2023/07/14 08:45:20;;;;;;;6.75;4.00;;;;;;;29.80;48.57;100776.56;4968760;28;20055;-82
2023/07/14 08:48:01;;;;;;;8.30;3.92;;;;;;;30.60;46.71;100779.75;4953139;28;20051;-82
2023/07/14 08:50:30;;;;;;;7.23;3.90;;;;;;;30.15;46.98;100778.25;4973923;28;20055;-82
2023/07/14 08:53:03;;;;;;;8.15;4.05;;;;;;;30.47;46.67;100780.38;4968744;28;20354;-82
2023/07/14 08:55:32;;;;;;;7.00;4.20;;;;;;;30.35;46.99;100775.34;4965354;28;20508;-81
2023/07/14 08:58:04;;;;;;;8.07;4.00;;;;;;;29.40;46.88;100749.56;4962353;28;20066;-80
2023/07/14 09:00:32;;;;;;;;;;;;;;;27.68;49.15;100757.94;4970527;28;20051;-80
2023/07/14 09:03:07;;;;;;;6.93;3.95;;;;;;;28.60;48.67;100759.53;4961764;28;19954;-81
2023/07/14 09:05:38;;;;;;;5.95;4.00;;;;;;;27.62;50.12;100758.97;4970583;28;20066;-80
2023/07/14 09:08:05;;;;;;;7.50;4.33;;;;;;;27.64;51.62;100756.84;4982812;28;20050;-83
2023/07/14 09:10:44;;;;;;;9.98;3.63;;;;;;;28.23;50.54;100740.22;4981006;28;20099;-82
2023/07/14 09:13:18;;;;;;;10.77;4.18;;;;;;;27.48;51.20;100739.84;4979266;28;20051;-82
2023/07/14 09:15:48;;;;;;;9.27;4.13;;;;;;;27.37;50.10;100720.22;4969081;28;20126;-82
2023/07/14 09:18:36;;;;;;;7.10;4.00;;;;;;;27.71;50.68;100743.94;4972688;28;20059;-80
2023/07/14 09:21:19;;;;;;;10.90;5.05;;;;;;;28.33;49.75;100729.47;4969843;28;20157;-83
2023/07/14 09:24:21;;;;;;;7.18;4.10;;;;;;;27.26;49.01;100699.75;4981880;28;20093;-80
2023/07/14 09:26:54;;;;;;;12.48;4.70;;;;;;;28.67;48.59;100727.75;4967707;28;20055;-82
2023/07/14 09:29:40;;;;;;;8.10;4.10;;;;;;;29.30;46.89;100693.00;4975524;28;20055;-81
2023/07/14 09:32:22;;;;;;;12.40;4.38;;;;;;;29.89;46.44;100729.84;4973362;28;20519;-81
2023/07/14 09:35:07;;;;;;;7.93;4.15;;;;;;;29.32;47.00;100717.00;4965942;28;20098;-80
2023/07/14 09:37:45;;;;;;;11.90;3.75;;;;;;;30.06;46.20;100725.97;4978133;28;20055;-82
2023/07/14 09:40:19;;;;;;;6.18;3.53;;;;;;;30.01;45.93;100724.91;4975643;28;20198;-81
2023/07/14 09:42:57;;;;;;;8.85;3.75;;;;;;;29.63;46.11;100693.38;4972159;28;20085;-82
2023/07/14 09:45:28;;;;;;;6.32;3.58;;;;;;;29.35;47.09;100703.75;4974301;28;20142;-81
2023/07/14 09:48:00;;;;;;;8.65;3.92;;;;;;;28.96;48.10;100692.13;4971679;28;20228;-83
2023/07/14 09:50:31;;;;;;;11.27;4.00;;;;;;;28.31;48.10;100705.50;4964856;28;20047;-80
2023/07/14 09:53:07;;;;;;;13.95;4.72;;;;;;;28.23;48.51;100702.56;4968741;28;20046;-81
2023/07/14 09:55:57;;;;;;;9.43;4.20;;;;;;;26.60;51.26;100694.09;4967441;28;20128;-84
2023/07/14 09:58:28;;;;;;;10.15;4.60;;;;;;;26.60;50.70;100661.06;4977508;28;20039;-84
2023/07/14 10:01:06;;;;;;;9.27;4.18;;;;;;;26.69;51.00;100687.16;4982623;28;20057;-80
2023/07/14 10:03:51;;;;;;;10.35;4.07;;;;;;;26.34;51.23;100674.38;4975783;28;20055;-85
2023/07/14 10:09:38;;;;;;;6.80;4.10;;;;;;;27.40;50.44;100665.13;4970624;28;20515;-81
2023/07/14 10:12:30;;;;;;;6.65;4.00;;;;;;;26.37;51.28;100679.22;4965149;28;20487;-82
2023/07/14 10:14:57;;;;;;;7.68;4.13;;;;;;;26.89;51.35;100664.16;4963684;28;20397;-81
2023/07/14 10:17:44;;;;;;;13.05;4.30;;;;;;;26.40;51.30;100675.22;4964073;28;20050;-79
2023/07/14 10:21:03;;;;;;;5.97;3.90;;;;;;;27.04;50.49;100629.31;4975674;28;20060;-80
2023/07/14 10:27:21;;;;;;;6.50;4.10;;;;;;;28.43;47.33;100613.69;4955719;28;20059;-83
2023/07/14 10:30:35;;;;;;;6.70;4.10;;;;;;;28.35;48.98;100633.94;4956717;28;20079;-84
2023/07/14 10:33:21;;;;;;;6.97;4.00;;;;;;;29.11;47.70;100650.84;4962189;28;20059;-82
2023/07/14 10:36:03;;;;;;;7.15;3.80;;;;;;;29.06;48.48;100646.28;4971600;28;20503;-83
2023/07/14 10:38:55;;;;;;;11.70;4.00;;;;;;;27.95;49.67;100642.03;4964213;28;20370;-84
2023/07/14 10:41:33;;;;;;;9.68;3.90;;;;;;;28.19;49.49;100626.13;4965210;28;20117;-83
2023/07/14 10:44:16;;;;;;;8.23;4.13;;;;;;;27.66;49.01;100596.91;4962335;28;20059;-83
2023/07/14 10:47:16;;;;;;;32.78;5.80;;;;;;;27.13;49.93;100608.94;4975646;28;20062;-82
2023/07/14 10:49:53;;;;;;;6.85;3.58;;;;;;;27.97;49.93;100594.16;4956426;28;20054;-82
2023/07/14 10:52:36;;;;;;;;;;;;;;;;;;;;;
2023/07/14 10:55:18;;;;;;;9.50;3.90;;;;;;;27.97;48.17;100573.44;4969805;28;20137;-84
2023/07/14 10:57:54;;;;;;;6.38;3.53;;;;;;;28.41;47.40;100588.94;4958874;28;20121;-85
2023/07/14 11:00:50;;;;;;;6.15;3.75;;;;;;;29.00;46.51;100580.84;4965323;28;20061;-84
2023/07/14 11:03:27;;;;;;;4.50;3.63;;;;;;;28.71;44.77;100578.03;4976024;28;20054;-84
2023/07/14 11:09:21;;;;;;;5.95;3.97;;;;;;;29.24;42.63;100537.03;4928479;28;20043;-84
2023/07/14 11:12:15;;;;;;;4.25;3.40;;;;;;;29.36;43.03;100535.56;4948928;28;20058;-84
2023/07/14 11:15:33;;;;;;;4.40;3.55;;;;;;;29.13;44.06;100541.72;4956567;28;20062;-85
2023/07/14 11:21:34;;;;;;;5.88;4.07;;;;;;;29.30;43.86;100536.69;4952620;28;20059;-84
2023/07/14 11:24:41;;;;;;;6.88;4.57;;;;;;;28.95;43.43;100508.16;4957022;28;20114;-84
2023/07/14 11:27:37;;;;;;;5.40;3.75;;;;;;;28.53;42.89;100484.44;4966394;28;20071;-84
2023/07/14 11:30:30;;;;;;;5.03;4.00;;;;;;;28.76;43.67;100514.47;4970036;28;20463;-83
2023/07/14 11:33:27;;;;;;;6.47;4.22;;;;;;;28.77;44.06;100521.47;4951630;28;20074;-83
2023/07/14 11:36:28;;;;;;;7.63;4.00;;;;;;;28.36;44.49;100482.13;4967945;28;20066;-83
2023/07/14 11:41:54;;;;;;;13.52;4.18;;;;;;;29.77;43.23;100508.25;4960851;28;20043;-84
2023/07/14 11:44:31;;;;;;;7.13;4.43;;;;;;;30.13;42.25;100507.88;4970349;28;20051;-84
2023/07/14 11:50:44;;;;;;;5.07;4.13;;;;;;;29.81;42.81;100482.28;4929058;28;20051;-84
2023/07/14 11:53:25;;;;;;;13.55;4.53;;;;;;;28.78;43.15;100475.41;4957261;28;20055;-82
2023/07/14 11:56:28;;;;;;;7.38;4.35;;;;;;;28.90;42.90;100478.56;4948066;28;20400;-85
2023/07/14 11:59:23;;;;;;;5.55;4.50;;;;;;;28.95;42.22;100472.34;4967144;28;20110;-83
2023/07/14 12:02:02;;;;;;;9.00;4.30;;;;;;;27.97;43.50;100471.25;4954232;28;20054;-84
2023/07/14 12:04:38;;;;;;;5.63;4.30;;;;;;;28.01;42.39;100426.59;4975199;28;20051;-84
2023/07/14 12:07:44;;;;;;;5.38;4.28;;;;;;;28.46;42.67;100435.50;4956858;28;20423;-84
2023/07/14 12:13:46;;;;;;;7.60;4.47;;;;;;;28.84;43.45;100462.72;4968511;28;20047;-84
2023/07/14 12:16:52;;;;;;;6.65;4.65;;;;;;;28.23;43.26;100438.91;4962008;28;20073;-83
2023/07/14 12:19:54;;;;;;;6.20;4.28;;;;;;;28.29;43.22;100454.75;4958619;28;20066;-84
2023/07/14 12:22:53;;;;;;;10.02;4.72;;;;;;;28.56;43.46;100435.44;4960583;28;20095;-83
2023/07/14 12:28:30;;;;;;;6.68;4.60;;;;;;;29.56;42.37;100425.97;4966037;28;20059;-83
2023/07/14 12:31:34;;;;;;;9.98;5.10;;;;;;;29.70;41.66;100411.53;4965473;28;20110;-83
2023/07/14 12:38:27;;;;;;;8.15;4.40;;;;;;;29.95;40.56;100413.06;4926297;28;20063;-83
2023/07/14 12:41:32;;;;;;;8.43;4.82;;;;;;;29.29;41.55;100378.81;4939310;29;20127;-83
2023/07/14 12:47:43;;;;;;;6.13;4.25;;;;;;;29.75;41.29;100386.38;4965413;28;20117;-84
2023/07/14 12:53:51;;;;;;;8.95;4.75;;;;;;;30.15;40.19;100392.34;4971616;28;20059;-85
2023/07/14 12:56:45;;;;;;;9.23;4.15;;;;;;;28.92;40.36;100351.69;4968587;28;20098;-84
2023/07/14 12:59:27;;;;;;;7.38;4.30;;;;;;;29.03;41.18;100355.91;4973556;28;20062;-83
2023/07/14 13:02:13;;;;;;;9.35;4.60;;;;;;;27.97;42.00;100342.16;4972140;28;20102;-83
2023/07/14 13:04:56;;;;;;;7.40;4.30;;;;;;;27.94;42.27;100339.22;4967710;28;20081;-84
2023/07/14 13:08:03;;;;;;;;;;;;;;;;;;;;;
2023/07/14 13:11:29;;;;;;;8.13;3.85;;;;;;;29.90;40.83;100351.09;4981448;28;20434;-82
2023/07/14 13:14:46;;;;;;;9.20;3.72;;;;;;;29.89;40.41;100317.13;4914027;29;20062;-82
2023/07/14 13:20:18;;;;;;;10.90;4.10;;;;;;;30.25;40.44;100330.91;4998221;23;20059;-84
2023/07/14 13:23:06;;;;;;;13.18;4.20;;;;;;;29.99;39.15;100311.63;4949458;29;20058;-83
2023/07/14 13:32:07;;;;;;;6.80;3.83;;;;;;;28.82;41.09;100304.16;4964853;28;20059;-84
2023/07/14 13:38:01;;;;;;;4.20;3.47;;;;;;;29.20;40.94;100312.34;4931295;28;20046;-83
2023/07/14 13:40:35;;;;;;;6.40;3.70;;;;;;;29.20;41.00;100294.28;4977046;28;20054;-83
2023/07/14 13:49:16;;;;;;;8.95;3.60;;;;;;;28.72;42.41;100302.31;4965015;28;20065;-82
2023/07/14 13:55:30;;;;;;;;;;;;;;;;;;;;;
2023/07/14 13:58:33;;;;;;;7.18;4.07;;;;;;;29.44;42.12;100288.09;4957011;29;20051;-84
2023/07/14 14:01:28;;;;;;;8.25;3.95;;;;;;;29.52;41.34;100292.84;4962791;28;20426;-82
2023/07/14 14:04:20;;;;;;;5.75;3.97;;;;;;;29.26;41.26;100281.56;4963478;29;20062;-81
2023/07/14 14:07:22;;;;;;;9.77;4.18;;;;;;;29.38;41.72;100307.00;4957783;28;20122;-80
2023/07/14 14:10:27;;;;;;;7.00;3.75;;;;;;;29.20;42.71;100282.72;4975315;28;20113;-82
2023/07/14 14:20:00;;;;;;;9.52;3.88;;;;;;;29.69;42.18;100295.84;4942637;28;20059;-83
2023/07/14 14:25:37;;;;;;;8.98;4.13;;;;;;;29.00;42.90;100263.00;4960634;28;20145;-83
2023/07/14 14:28:42;;;;;;;6.00;3.70;;;;;;;28.73;43.54;100274.31;4962147;28;20086;-81
2023/07/14 14:35:31;;;;;;;6.38;3.95;;;;;;;29.07;42.43;100224.94;4955528;28;20409;-81
2023/07/14 14:38:31;;;;;;;6.25;3.70;;;;;;;29.03;42.85;100232.78;4964905;28;20047;-82
2023/07/14 14:41:13;;;;;;;6.18;3.40;;;;;;;28.66;43.07;100195.78;4973867;28;20411;-82
2023/07/14 14:49:21;;;;;;;6.22;3.53;;;;;;;28.60;42.36;100188.84;4963014;28;20070;-81
2023/07/14 14:52:16;;;;;;;5.88;3.40;;;;;;;28.78;42.27;100173.03;4965871;28;20051;-81
2023/07/14 14:54:45;;;;;;;6.93;3.33;;;;;;;28.78;42.13;100163.06;4965428;28;20055;-82
2023/07/14 14:57:23;;;;;;;6.22;3.70;;;;;;;29.09;42.31;100184.25;4966643;28;20047;-81
2023/07/14 15:03:02;;;;;;;6.43;3.80;;;;;;;28.91;42.45;100175.84;4959149;28;20054;-81
2023/07/14 15:08:53;;;;;;;6.78;3.60;;;;;;;29.26;42.41;100161.13;4965656;28;20539;-82
2023/07/14 15:11:57;;;;;;;5.80;3.70;;;;;;;29.25;42.13;100172.97;4938461;29;20060;-82
2023/07/14 15:14:30;;;;;;;7.50;3.63;;;;;;;29.32;41.85;100141.06;4940575;28;20065;-82
2023/07/14 15:17:24;;;;;;;6.32;3.90;;;;;;;29.58;42.01;100154.19;4967250;28;20110;-82
2023/07/14 15:20:28;;;;;;;5.68;3.72;;;;;;;29.15;43.00;100151.56;4962982;28;20070;-81
2023/07/14 15:23:07;;;;;;;6.95;3.88;;;;;;;29.26;43.76;100169.19;4899578;29;20653;-82
2023/07/14 15:28:34;;;;;;;8.05;3.53;;;;;;;29.29;43.69;100151.66;4899815;29;20049;-81
2023/07/14 15:31:33;;;;;;;5.57;3.40;;;;;;;29.22;43.67;100124.25;4893372;29;20056;-81
2023/07/14 15:34:30;;;;;;;10.05;3.95;;;;;;;29.26;43.33;100142.25;4932122;28;20069;-81
2023/07/14 15:46:34;;;;;;;7.65;3.72;;;;;;;29.45;43.67;100118.00;4950408;28;20479;-83
2023/07/14 15:52:47;;;;;;;7.85;3.60;;;;;;;28.88;44.76;100082.16;4958729;28;20451;-82
2023/07/14 15:56:10;;;;;;;6.43;3.63;;;;;;;28.75;43.42;100080.19;4955020;28;20056;-83
2023/07/14 15:58:53;;;;;;;5.13;3.70;;;;;;;28.66;44.24;100090.78;4898569;29;20059;-82
2023/07/14 16:01:34;;;;;;;7.03;3.88;;;;;;;28.45;44.10;100062.50;4904664;28;20052;-82
2023/07/14 16:16:52;;;;;;;6.00;3.60;;;;;;;28.99;43.58;100018.19;4966050;28;20058;-82
2023/07/14 16:19:48;;;;;;;6.50;3.60;;;;;;;28.61;44.11;100028.94;4949026;29;20047;-82
2023/07/14 16:22:45;;;;;;;7.78;4.05;;;;;;;28.85;44.06;100038.84;4956752;28;20051;-83
2023/07/14 16:25:37;;;;;;;7.28;3.90;;;;;;;28.97;44.24;100034.63;4969244;28;20085;-83
2023/07/14 16:35:53;;;;;;;7.18;3.75;;;;;;;28.37;44.97;100003.94;5064735;23;20058;-81
2023/07/14 16:45:45;;;;;;;5.00;4.00;;;;;;;28.56;45.13;99988.63;4949488;28;20063;-81
2023/07/14 16:48:12;;;;;;;8.48;3.80;;;;;;;28.58;44.87;99993.72;4936891;23;20082;-80
2023/07/14 16:50:38;;;;;;;7.30;3.72;;;;;;;28.55;45.13;99989.72;4963477;28;20050;-79
2023/07/14 16:53:11;;;;;;;6.28;3.60;;;;;;;28.36;45.26;99989.69;4962921;29;20483;-81
2023/07/14 16:55:41;;;;;;;8.07;3.80;;;;;;;28.39;45.57;99993.69;4964008;28;20067;-81
2023/07/14 16:58:17;;;;;;;7.40;3.75;;;;;;;28.62;45.47;99987.47;4962266;29;20118;-80
2023/07/14 17:00:46;;;;;;;6.30;3.60;;;;;;;28.64;45.34;99979.91;4957242;28;20089;-79
2023/07/14 17:03:18;;;;;;;6.28;3.95;;;;;;;28.83;45.11;99982.59;4962739;28;20142;-79